createdAt,value
2018-07-08T00:00:01.115Z,101577.50
2018-07-08T00:02:30.236Z,101579.05
2018-07-08T00:04:59.336Z,101575.64
2018-07-08T00:07:28.448Z,101577.83
2018-07-08T00:09:57.549Z,101575.13
2018-07-08T00:12:26.663Z,101581.36
2018-07-08T00:14:55.773Z,101588.94
2018-07-08T00:17:24.895Z,101581.55
2018-07-08T00:19:53.977Z,101585.30
2018-07-08T00:22:23.105Z,101583.21
2018-07-08T00:24:52.217Z,101583.19
2018-07-08T00:27:21.296Z,101587.84
2018-07-08T00:29:50.397Z,101589.84
2018-07-08T00:32:19.510Z,101587.38
2018-07-08T00:34:48.641Z,101594.91
2018-07-08T00:37:17.749Z,101581.30
2018-07-08T00:39:46.850Z,101583.20
2018-07-08T00:42:15.951Z,101588.74
2018-07-08T00:44:45.085Z,101578.60
2018-07-08T00:47:14.185Z,101584.02
2018-07-08T00:49:43.280Z,101586.09
2018-07-08T00:52:12.476Z,101581.05
2018-07-08T00:54:41.585Z,101588.36
2018-07-08T00:57:10.701Z,101584.98
2018-07-08T00:59:39.785Z,101585.23
2018-07-08T01:02:08.885Z,101587.13
2018-07-08T01:04:38.001Z,101593.77
2018-07-08T01:07:07.156Z,101599.48
2018-07-08T01:09:36.266Z,101602.55
2018-07-08T01:12:05.357Z,101609.89
2018-07-08T01:14:34.485Z,101609.74
2018-07-08T01:17:03.614Z,101607.41
2018-07-08T01:19:33.029Z,101600.89
2018-07-08T01:22:02.149Z,101613.37
2018-07-08T01:24:31.265Z,101608.56
2018-07-08T01:27:00.377Z,101612.50
2018-07-08T01:29:29.482Z,101610.37
2018-07-08T01:31:58.709Z,101617.03
2018-07-08T01:34:27.808Z,101620.03
2018-07-08T01:36:57.152Z,101621.50
2018-07-08T01:39:26.272Z,101622.89
2018-07-08T01:41:55.372Z,101625.55
2018-07-08T01:44:24.558Z,101635.80
2018-07-08T01:46:53.555Z,101627.75
2018-07-08T01:49:22.674Z,101637.30
2018-07-08T01:51:51.778Z,101641.30
2018-07-08T01:54:20.921Z,101632.14
2018-07-08T01:56:50.069Z,101639.28
2018-07-08T01:59:19.184Z,101644.50
2018-07-08T02:01:48.337Z,101644.72
2018-07-08T02:04:17.445Z,101640.61
2018-07-08T02:06:46.556Z,101647.88
2018-07-08T02:09:16.021Z,101646.80
2018-07-08T02:11:45.197Z,101643.77
2018-07-08T02:14:14.317Z,101645.00
2018-07-08T02:16:43.421Z,101642.11
2018-07-08T02:19:12.553Z,101645.76
2018-07-08T02:21:41.743Z,101643.77
2018-07-08T02:24:10.872Z,101645.14
2018-07-08T02:26:40.137Z,101640.05
2018-07-08T02:29:09.233Z,101644.56
2018-07-08T02:31:38.373Z,101646.94
2018-07-08T02:34:07.521Z,101644.69
2018-07-08T02:36:36.659Z,101642.88
2018-07-08T02:39:06.881Z,101644.83
2018-07-08T02:41:36.034Z,101642.54
2018-07-08T02:44:05.669Z,101642.05
2018-07-08T02:46:34.841Z,101642.24
2018-07-08T02:49:03.977Z,101643.80
2018-07-08T02:51:33.086Z,101645.12
2018-07-08T02:54:02.173Z,101641.22
2018-07-08T02:56:31.248Z,101642.86
2018-07-08T02:59:00.368Z,101643.67
2018-07-08T03:01:29.462Z,101638.26
2018-07-08T03:03:58.553Z,101634.42
2018-07-08T03:06:27.621Z,101642.84
2018-07-08T03:08:56.728Z,101641.03
2018-07-08T03:11:25.813Z,101644.22
2018-07-08T03:13:54.925Z,101641.82
2018-07-08T03:16:24.018Z,101644.55
2018-07-08T03:18:53.106Z,101646.41
2018-07-08T03:21:22.176Z,101648.89
2018-07-08T03:23:51.289Z,101648.45
2018-07-08T03:26:20.384Z,101642.55
2018-07-08T03:28:49.469Z,101649.63
2018-07-08T03:31:18.605Z,101657.69
2018-07-08T03:33:47.705Z,101653.22
2018-07-08T03:36:16.907Z,101649.42
2018-07-08T03:38:46.253Z,101658.79
2018-07-08T03:41:15.355Z,101665.89
2018-07-08T03:43:44.445Z,101669.30
2018-07-08T03:46:13.553Z,101668.20
2018-07-08T03:48:42.753Z,101667.45
2018-07-08T03:51:11.880Z,101665.80
2018-07-08T03:53:40.963Z,101666.83
2018-07-08T03:56:10.078Z,101663.52
2018-07-08T03:58:39.181Z,101663.47
2018-07-08T04:01:08.272Z,101660.76
2018-07-08T04:03:37.386Z,101662.20
2018-07-08T04:06:06.613Z,101657.48
2018-07-08T04:08:35.697Z,101662.21
2018-07-08T04:11:04.821Z,101663.95
2018-07-08T04:13:33.905Z,101672.94
2018-07-08T04:16:02.997Z,101663.57
2018-07-08T04:18:32.078Z,101671.97
2018-07-08T04:21:01.161Z,101666.23
2018-07-08T04:23:30.261Z,101672.67
2018-07-08T04:25:59.373Z,101675.33
2018-07-08T04:28:28.459Z,101685.94
2018-07-08T04:30:57.573Z,101689.00
2018-07-08T04:33:26.652Z,101694.77
2018-07-08T04:35:55.781Z,101690.92
2018-07-08T04:38:24.864Z,101693.07
2018-07-08T04:40:53.974Z,101690.56
2018-07-08T04:43:23.063Z,101691.36
2018-07-08T04:45:52.157Z,101697.87
2018-07-08T04:48:21.275Z,101699.71
2018-07-08T04:50:50.357Z,101697.39
2018-07-08T04:53:19.445Z,101703.61
2018-07-08T04:55:48.537Z,101703.52
2018-07-08T04:58:17.672Z,101701.82
2018-07-08T05:00:46.752Z,101705.76
2018-07-08T05:03:15.829Z,101716.81
2018-07-08T05:05:44.952Z,101715.94
2018-07-08T05:08:14.246Z,101719.59
2018-07-08T05:10:43.442Z,101720.83
2018-07-08T05:13:12.893Z,101712.36
2018-07-08T05:15:42.068Z,101727.34
2018-07-08T05:18:11.154Z,101727.31
2018-07-08T05:20:40.217Z,101728.08
2018-07-08T05:23:09.345Z,101727.23
2018-07-08T05:25:38.429Z,101717.25
2018-07-08T05:28:07.545Z,101722.86
2018-07-08T05:30:36.637Z,101724.45
2018-07-08T05:33:05.869Z,101720.75
2018-07-08T05:35:35.068Z,101725.92
2018-07-08T05:38:04.145Z,101721.23
2018-07-08T05:40:33.237Z,101717.21
2018-07-08T05:43:02.334Z,101716.77
2018-07-08T05:45:31.485Z,101718.28
2018-07-08T05:48:02.605Z,101714.42
2018-07-08T05:50:31.740Z,101721.11
2018-07-08T05:53:00.827Z,101711.56
2018-07-08T05:55:29.963Z,101720.23
2018-07-08T05:57:59.125Z,101717.52
2018-07-08T06:00:29.270Z,101720.91
2018-07-08T06:02:58.354Z,101722.70
2018-07-08T06:05:27.461Z,101719.59
2018-07-08T06:07:56.709Z,101719.98
2018-07-08T06:10:25.830Z,101718.49
2018-07-08T06:12:54.941Z,101722.39
2018-07-08T06:15:24.073Z,101725.85
2018-07-08T06:17:53.177Z,101730.48
2018-07-08T06:20:22.277Z,101727.98
2018-07-08T06:22:51.525Z,101725.63
2018-07-08T06:25:20.645Z,101733.83
2018-07-08T06:27:49.733Z,101730.31
2018-07-08T06:30:18.837Z,101736.48
2018-07-08T06:32:47.928Z,101732.07
2018-07-08T06:35:17.029Z,101734.47
2018-07-08T06:37:46.118Z,101734.77
2018-07-08T06:40:15.225Z,101749.70
2018-07-08T06:42:44.333Z,101733.37
2018-07-08T06:45:13.445Z,101738.37
2018-07-08T06:47:42.655Z,101727.09
2018-07-08T06:50:11.761Z,101732.01
2018-07-08T06:52:40.887Z,101725.05
2018-07-08T06:55:10.006Z,101740.62
2018-07-08T06:57:39.141Z,101733.91
2018-07-08T07:00:08.415Z,101732.16
2018-07-08T07:02:37.512Z,101734.31
2018-07-08T07:05:06.653Z,101735.31
2018-07-08T07:07:36.767Z,101733.05
2018-07-08T07:10:06.373Z,101739.01
2018-07-08T07:12:35.468Z,101740.00
2018-07-08T07:15:06.633Z,101742.52
2018-07-08T07:17:35.726Z,101736.28
2018-07-08T07:20:04.893Z,101735.56
2018-07-08T07:22:34.001Z,101733.41
2018-07-08T07:25:03.105Z,101724.34
2018-07-08T07:27:32.410Z,101725.68
2018-07-08T07:30:01.516Z,101718.33
2018-07-08T07:32:30.633Z,101731.50
2018-07-08T07:34:59.733Z,101732.22
2018-07-08T07:37:28.975Z,101729.22
2018-07-08T07:39:58.116Z,101731.81
2018-07-08T07:42:27.260Z,101731.23
2018-07-08T07:44:56.540Z,101728.16
2018-07-08T07:47:25.621Z,101726.83
2018-07-08T07:49:54.737Z,101724.14
2018-07-08T07:52:23.857Z,101725.16
2018-07-08T07:54:52.958Z,101731.56
2018-07-08T07:57:22.065Z,101729.73
2018-07-08T07:59:53.293Z,101727.31
2018-07-08T08:02:26.058Z,101719.68
2018-07-08T08:04:55.269Z,101721.37
2018-07-08T08:07:24.461Z,101729.11
2018-07-08T08:09:53.647Z,101731.23
2018-07-08T08:12:22.733Z,101728.59
2018-07-08T08:14:51.958Z,101719.45
2018-07-08T08:17:21.065Z,101734.53
2018-07-08T08:19:50.153Z,101730.26
2018-07-08T08:22:19.257Z,101730.92
2018-07-08T08:24:48.337Z,101726.86
2018-07-08T08:27:17.465Z,101732.71
2018-07-08T08:29:46.569Z,101732.09
2018-07-08T08:32:15.689Z,101739.31
2018-07-08T08:34:57.057Z,101748.37
2018-07-08T08:37:30.484Z,101748.76
2018-07-08T08:39:59.597Z,101745.87
2018-07-08T08:42:28.729Z,101731.51
2018-07-08T08:44:58.529Z,101735.54
2018-07-08T08:47:28.142Z,101732.28
2018-07-08T08:49:57.485Z,101738.31
2018-07-08T08:52:26.678Z,101740.03
2018-07-08T08:54:56.160Z,101737.98
2018-07-08T08:57:32.621Z,101742.35
2018-07-08T09:00:01.719Z,101745.77
2018-07-08T09:02:30.821Z,101736.11
2018-07-08T09:04:59.933Z,101736.44
2018-07-08T09:07:29.137Z,101739.19
2018-07-08T09:09:58.261Z,101736.20
2018-07-08T09:12:27.373Z,101734.95
2018-07-08T09:14:56.474Z,101737.98
2018-07-08T09:17:25.601Z,101735.36
2018-07-08T09:19:54.709Z,101732.19
2018-07-08T09:22:23.785Z,101730.75
2018-07-08T09:24:52.906Z,101741.85
2018-07-08T09:27:21.997Z,101737.58
2018-07-08T09:29:51.102Z,101734.90
2018-07-08T09:32:20.202Z,101734.06
2018-07-08T09:34:49.314Z,101732.39
2018-07-08T09:37:18.442Z,101729.83
2018-07-08T09:39:47.541Z,101734.27
2018-07-08T09:42:16.625Z,101732.70
2018-07-08T09:44:45.709Z,101737.88
2018-07-08T09:47:14.813Z,101738.53
2018-07-08T09:49:43.886Z,101730.78
2018-07-08T09:52:12.992Z,101727.55
2018-07-08T09:54:42.122Z,101712.61
2018-07-08T09:57:11.233Z,101719.09
2018-07-08T09:59:40.335Z,101728.16
2018-07-08T10:02:09.443Z,101727.52
2018-07-08T10:04:38.625Z,101732.57
2018-07-08T10:07:07.646Z,101725.11
2018-07-08T10:09:40.629Z,101725.05
2018-07-08T10:12:09.717Z,101722.08
2018-07-08T10:14:38.797Z,101715.49
2018-07-08T10:17:07.945Z,101715.67
2018-07-08T10:19:37.309Z,101725.56
2018-07-08T10:22:06.412Z,101719.69
2018-07-08T10:24:35.833Z,101722.52
2018-07-08T10:28:19.181Z,101721.17
2018-07-08T10:30:48.646Z,101717.91
2018-07-08T10:33:17.758Z,101729.80
2018-07-08T10:35:59.078Z,101726.45
2018-07-08T10:38:28.254Z,101720.52
2018-07-08T10:40:57.461Z,101716.73
2018-07-08T10:43:26.626Z,101714.64
2018-07-08T10:45:55.636Z,101718.44
2018-07-08T10:48:24.741Z,101715.72
2018-07-08T10:50:53.832Z,101707.02
2018-07-08T10:53:22.946Z,101697.33
2018-07-08T10:55:52.029Z,101696.78
2018-07-08T10:58:21.118Z,101701.41
2018-07-08T11:00:50.237Z,101703.73
2018-07-08T11:03:19.326Z,101692.89
2018-07-08T11:05:48.430Z,101680.63
2018-07-08T11:08:17.533Z,101688.66
2018-07-08T11:10:46.653Z,101686.86
2018-07-08T11:13:15.750Z,101681.34
2018-07-08T11:15:44.841Z,101682.97
2018-07-08T11:18:13.984Z,101678.97
2018-07-08T11:20:43.190Z,101667.70
2018-07-08T11:23:12.261Z,101668.36
2018-07-08T11:25:42.129Z,101676.83
2018-07-08T11:28:11.549Z,101667.50
2018-07-08T11:30:40.879Z,101671.92
2018-07-08T11:33:10.373Z,101677.17
2018-07-08T11:35:39.504Z,101665.91
2018-07-08T11:38:08.606Z,101663.37
2018-07-08T11:40:37.702Z,101654.86
2018-07-08T11:43:06.802Z,101655.39
2018-07-08T11:45:36.009Z,101638.98
2018-07-08T11:48:05.380Z,101653.28
2018-07-08T11:50:34.521Z,101655.33
2018-07-08T11:53:03.657Z,101652.03
2018-07-08T11:55:32.785Z,101647.41
2018-07-08T11:58:01.957Z,101644.82
2018-07-08T12:00:31.086Z,101638.23
2018-07-08T12:03:00.249Z,101634.09
2018-07-08T12:05:29.477Z,101636.67
2018-07-08T12:07:58.691Z,101638.64
2018-07-08T12:10:27.816Z,101642.76
2018-07-08T12:12:56.910Z,101641.45
2018-07-08T12:15:26.054Z,101635.11
2018-07-08T12:17:55.173Z,101638.89
2018-07-08T12:20:24.438Z,101629.02
2018-07-08T12:22:53.911Z,101634.92
2018-07-08T12:25:23.091Z,101632.20
2018-07-08T12:27:52.197Z,101626.97
2018-07-08T12:30:21.317Z,101626.56
2018-07-08T12:32:50.405Z,101627.28
2018-07-08T12:35:19.536Z,101618.82
2018-07-08T12:37:48.642Z,101615.98
2018-07-08T12:40:17.753Z,101613.70
2018-07-08T12:42:46.829Z,101614.17
2018-07-08T12:45:15.937Z,101607.47
2018-07-08T12:47:45.053Z,101614.94
2018-07-08T12:50:14.153Z,101607.54
2018-07-08T12:52:43.238Z,101607.58
2018-07-08T12:55:12.372Z,101603.70
2018-07-08T12:57:41.465Z,101603.81
2018-07-08T13:00:10.595Z,101599.59
2018-07-08T13:02:39.718Z,101604.40
2018-07-08T13:05:08.953Z,101608.44
2018-07-08T13:07:38.161Z,101610.64
2018-07-08T13:10:07.271Z,101599.98
2018-07-08T13:12:36.413Z,101598.90
2018-07-08T13:15:05.689Z,101599.48
2018-07-08T13:17:45.183Z,101600.02
2018-07-08T13:20:18.033Z,101597.65
2018-07-08T13:22:47.157Z,101595.56
2018-07-08T13:25:21.149Z,101593.69
2018-07-08T13:27:52.009Z,101591.36
2018-07-08T13:30:21.169Z,101596.05
2018-07-08T13:32:50.505Z,101593.54
2018-07-08T13:35:19.673Z,101591.09
2018-07-08T13:37:49.526Z,101588.27
2018-07-08T13:40:18.661Z,101591.98
2018-07-08T13:42:47.776Z,101583.37
2018-07-08T13:45:16.919Z,101594.53
2018-07-08T13:47:46.002Z,101592.16
2018-07-08T13:50:15.142Z,101588.10
2018-07-08T13:52:44.252Z,101584.17
2018-07-08T13:55:13.370Z,101576.30
2018-07-08T13:57:42.469Z,101583.14
2018-07-08T14:00:11.585Z,101578.58
2018-07-08T14:02:40.693Z,101579.28
2018-07-08T14:05:09.817Z,101577.02
2018-07-08T14:07:38.981Z,101574.57
2018-07-08T14:10:08.085Z,101576.61
2018-07-08T14:12:37.221Z,101574.52
2018-07-08T14:15:06.374Z,101585.95
2018-07-08T14:17:35.513Z,101574.02
2018-07-08T14:20:05.012Z,101583.66
2018-07-08T14:22:34.081Z,101579.18
2018-07-08T14:25:03.173Z,101573.67
2018-07-08T14:27:32.313Z,101562.66
2018-07-08T14:30:01.497Z,101557.89
2018-07-08T14:32:30.585Z,101558.64
2018-07-08T14:34:59.914Z,101558.13
2018-07-08T14:37:29.147Z,101555.18
2018-07-08T14:39:58.225Z,101558.34
2018-07-08T14:42:27.353Z,101552.40
2018-07-08T14:44:56.473Z,101548.41
2018-07-08T14:47:25.585Z,101553.55
2018-07-08T14:49:54.660Z,101558.87
2018-07-08T14:52:23.768Z,101548.41
2018-07-08T14:54:53.675Z,101554.68
2018-07-08T14:57:22.972Z,101550.39
2018-07-08T14:59:52.077Z,101549.78
2018-07-08T15:02:21.163Z,101542.95
2018-07-08T15:04:50.326Z,101541.30
2018-07-08T15:07:19.365Z,101552.16
2018-07-08T15:09:48.474Z,101543.70
2018-07-08T15:12:17.564Z,101546.64
2018-07-08T15:14:46.801Z,101547.71
2018-07-08T15:17:15.890Z,101547.92
2018-07-08T15:19:44.993Z,101543.25
2018-07-08T15:22:14.096Z,101527.38
2018-07-08T15:24:43.173Z,101533.44
2018-07-08T15:27:12.268Z,101539.06
2018-07-08T15:29:41.401Z,101537.08
2018-07-08T15:32:10.517Z,101535.56
2018-07-08T15:34:39.657Z,101535.00
2018-07-08T15:37:08.773Z,101525.66
2018-07-08T15:39:37.921Z,101527.23
2018-07-08T15:42:08.101Z,101524.84
2018-07-08T15:44:37.278Z,101524.92
2018-07-08T15:47:06.415Z,101526.62
2018-07-08T15:49:35.556Z,101519.41
2018-07-08T15:52:04.626Z,101514.98
2018-07-08T15:54:33.710Z,101514.53
2018-07-08T15:57:02.829Z,101513.86
2018-07-08T15:59:31.959Z,101518.77
2018-07-08T16:02:01.102Z,101514.18
2018-07-08T16:04:30.426Z,101511.86
2018-07-08T16:06:59.757Z,101518.41
2018-07-08T16:09:29.966Z,101511.84
2018-07-08T16:11:59.410Z,101504.16
2018-07-08T16:14:28.601Z,101507.18
2018-07-08T16:16:57.697Z,101505.30
2018-07-08T16:19:26.801Z,101502.53
2018-07-08T16:21:55.985Z,101506.71
2018-07-08T16:24:25.089Z,101507.79
2018-07-08T16:26:54.206Z,101506.00
2018-07-08T16:29:23.287Z,101504.05
2018-07-08T16:31:52.425Z,101503.10
2018-07-08T16:34:21.962Z,101511.21
2018-07-08T16:36:51.137Z,101509.61
2018-07-08T16:39:20.260Z,101500.70
2018-07-08T16:41:49.433Z,101505.78
2018-07-08T16:44:18.548Z,101497.43
2018-07-08T16:46:48.310Z,101502.53
2018-07-08T16:49:18.682Z,101499.41
2018-07-08T16:51:47.809Z,101500.28
2018-07-08T16:54:18.880Z,101507.23
2018-07-08T16:56:49.906Z,101495.50
2018-07-08T16:59:19.240Z,101493.80
2018-07-08T17:01:48.423Z,101499.27
2018-07-08T17:04:17.602Z,101502.84
2018-07-08T17:06:46.738Z,101491.89
2018-07-08T17:09:15.955Z,101493.27
2018-07-08T17:11:45.049Z,101490.66
2018-07-08T17:14:14.175Z,101491.51
2018-07-08T17:16:43.289Z,101488.41
2018-07-08T17:19:12.398Z,101494.83
2018-07-08T17:21:42.042Z,101485.16
2018-07-08T17:24:11.117Z,101489.58
2018-07-08T17:26:40.209Z,101488.41
2018-07-08T17:29:09.336Z,101490.65
2018-07-08T17:31:38.481Z,101498.10
2018-07-08T17:34:07.604Z,101491.19
2018-07-08T17:36:36.725Z,101490.05
2018-07-08T17:39:07.033Z,101485.56
2018-07-08T17:41:36.541Z,101488.69
2018-07-08T17:44:06.324Z,101491.55
2018-07-08T17:46:35.607Z,101491.61
2018-07-08T17:49:04.693Z,101489.17
2018-07-08T17:51:33.856Z,101485.99
2018-07-08T17:54:02.986Z,101485.77
2018-07-08T17:56:32.138Z,101489.66
2018-07-08T17:59:01.281Z,101490.11
2018-07-08T18:01:30.417Z,101491.31
2018-07-08T18:03:59.579Z,101487.61
2018-07-08T18:06:29.186Z,101491.51
2018-07-08T18:08:58.359Z,101483.45
2018-07-08T18:11:27.657Z,101488.89
2018-07-08T18:13:57.159Z,101480.63
2018-07-08T18:16:26.279Z,101487.37
2018-07-08T18:18:55.575Z,101484.23
2018-07-08T18:21:25.115Z,101489.18
2018-07-08T18:23:54.249Z,101483.77
2018-07-08T18:26:23.442Z,101489.56
2018-07-08T18:28:52.610Z,101486.59
2018-07-08T18:31:21.746Z,101483.22
2018-07-08T18:33:50.897Z,101488.77
2018-07-08T18:36:20.195Z,101485.23
2018-07-08T18:38:49.381Z,101482.33
2018-07-08T18:41:18.489Z,101488.52
2018-07-08T18:43:47.694Z,101485.92
2018-07-08T18:46:16.938Z,101489.91
2018-07-08T18:48:45.941Z,101496.00
2018-07-08T18:51:15.038Z,101495.38
2018-07-08T18:53:44.265Z,101496.95
2018-07-08T18:56:13.413Z,101499.03
2018-07-08T18:58:42.549Z,101501.44
2018-07-08T19:01:11.697Z,101504.00
2018-07-08T19:03:41.889Z,101502.56
2018-07-08T19:06:11.002Z,101496.67
2018-07-08T19:08:40.818Z,101498.25
2018-07-08T19:11:09.941Z,101496.45
2018-07-08T19:13:39.113Z,101495.09
2018-07-08T19:16:08.225Z,101495.51
2018-07-08T19:18:37.394Z,101495.30
2018-07-08T19:21:06.587Z,101494.33
2018-07-08T19:23:35.794Z,101502.51
2018-07-08T19:26:04.982Z,101499.28
2018-07-08T19:28:34.184Z,101509.54
2018-07-08T19:31:03.422Z,101514.56
2018-07-08T19:33:32.537Z,101501.56
2018-07-08T19:36:01.849Z,101513.45
2018-07-08T19:38:31.506Z,101511.19
2018-07-08T19:41:00.603Z,101513.33
2018-07-08T19:43:29.715Z,101510.40
2018-07-08T19:45:58.846Z,101515.71
2018-07-08T19:48:28.010Z,101506.98
2018-07-08T19:50:57.121Z,101513.77
2018-07-08T19:53:26.293Z,101519.13
2018-07-08T19:55:55.431Z,101518.08
2018-07-08T19:58:24.557Z,101522.94
2018-07-08T20:00:54.269Z,101523.45
2018-07-08T20:03:23.369Z,101520.42
2018-07-08T20:05:59.812Z,101528.57
2018-07-08T20:08:28.957Z,101528.47
2018-07-08T20:10:58.142Z,101539.31
2018-07-08T20:13:29.433Z,101532.81
2018-07-08T20:15:58.557Z,101541.83
2018-07-08T20:18:28.730Z,101534.47
2018-07-08T20:20:58.068Z,101534.23
2018-07-08T20:23:27.177Z,101541.81
2018-07-08T20:25:56.272Z,101541.70
2018-07-08T20:28:25.413Z,101544.70
2018-07-08T20:30:54.577Z,101543.38
2018-07-08T20:33:23.682Z,101544.30
2018-07-08T20:35:53.132Z,101552.74
2018-07-08T20:38:22.229Z,101548.49
2018-07-08T20:40:51.445Z,101547.83
2018-07-08T20:43:20.662Z,101549.33
2018-07-08T20:45:49.824Z,101548.45
2018-07-08T20:48:18.934Z,101545.39
2018-07-08T20:50:48.366Z,101553.76
2018-07-08T20:53:17.480Z,101559.88
2018-07-08T20:55:46.897Z,101556.70
2018-07-08T20:58:16.001Z,101557.98
2018-07-08T21:00:45.622Z,101561.55
2018-07-08T21:03:14.835Z,101566.20
2018-07-08T21:05:43.988Z,101560.97
2018-07-08T21:08:13.146Z,101563.52
2018-07-08T21:10:42.281Z,101556.41
2018-07-08T21:13:11.485Z,101562.13
2018-07-08T21:15:41.904Z,101558.27
2018-07-08T21:18:11.079Z,101561.38
2018-07-08T21:20:40.245Z,101559.05
2018-07-08T21:23:09.365Z,101558.55
2018-07-08T21:25:38.538Z,101560.20
2018-07-08T21:28:07.651Z,101553.50
2018-07-08T21:30:36.781Z,101553.77
2018-07-08T21:33:05.889Z,101554.37
2018-07-08T21:35:35.043Z,101554.28
2018-07-08T21:38:04.201Z,101557.49
2018-07-08T21:40:33.603Z,101563.16
2018-07-08T21:43:02.763Z,101562.00
2018-07-08T21:45:31.874Z,101561.02
2018-07-08T21:48:00.973Z,101558.52
2018-07-08T21:50:30.117Z,101558.73
2018-07-08T21:52:59.225Z,101557.00
2018-07-08T21:55:28.340Z,101563.41
2018-07-08T21:57:57.478Z,101563.61
2018-07-08T22:00:29.537Z,101564.38
2018-07-08T22:02:58.869Z,101569.77
2018-07-08T22:05:29.085Z,101566.11
2018-07-08T22:08:04.057Z,101564.92
2018-07-08T22:10:33.709Z,101571.70
2018-07-08T22:13:03.585Z,101570.30
2018-07-08T22:15:32.712Z,101570.28
2018-07-08T22:18:01.807Z,101570.15
2018-07-08T22:20:30.905Z,101566.54
2018-07-08T22:23:00.042Z,101573.63
2018-07-08T22:25:29.116Z,101575.80
2018-07-08T22:27:58.207Z,101577.05
2018-07-08T22:30:27.289Z,101576.92
2018-07-08T22:32:56.481Z,101565.19
2018-07-08T22:35:25.513Z,101578.81
2018-07-08T22:37:54.661Z,101581.93
2018-07-08T22:40:23.753Z,101574.98
2018-07-08T22:42:52.862Z,101571.44
2018-07-08T22:45:21.970Z,101573.56
2018-07-08T22:47:51.133Z,101571.46
2018-07-08T22:50:20.241Z,101567.50
2018-07-08T22:52:49.336Z,101570.74
2018-07-08T22:55:18.439Z,101568.88
2018-07-08T22:57:47.521Z,101570.80
2018-07-08T23:00:27.900Z,101571.14
2018-07-08T23:03:08.429Z,101567.17
2018-07-08T23:05:37.541Z,101563.98
2018-07-08T23:08:06.633Z,101569.73
2018-07-08T23:10:35.782Z,101567.08
2018-07-08T23:13:04.885Z,101564.38
2018-07-08T23:15:34.193Z,101561.41
2018-07-08T23:18:03.325Z,101569.34
2018-07-08T23:20:32.453Z,101570.33
2018-07-08T23:23:01.553Z,101565.84
2018-07-08T23:25:30.660Z,101566.16
2018-07-08T23:27:59.760Z,101571.91
2018-07-08T23:30:28.877Z,101572.97
2018-07-08T23:32:57.988Z,101575.19
2018-07-08T23:35:27.108Z,101568.84
2018-07-08T23:37:56.181Z,101572.89
2018-07-08T23:40:25.290Z,101578.16
2018-07-08T23:42:54.485Z,101568.93
2018-07-08T23:45:23.634Z,101574.69
2018-07-08T23:47:52.758Z,101575.75
2018-07-08T23:50:21.852Z,101577.29
2018-07-08T23:52:50.945Z,101575.13
2018-07-08T23:55:20.057Z,101573.81
2018-07-08T23:57:49.157Z,101581.01
